Time;durP1;ratioP1;P1;durP2;ratioP2;P2;SDS_P1;SDS_P2;PMS_P1;PMS_P2;Temp;Humidity;BMP_temperature;BMP_pressure;BME280_temperature;BME280_humidity;BME280_pressure;Samples;Min_cycle;Max_cycle;Signal;HPM_P1;HPM_P2
2021/11/26 01:51:19;;;;;;;31.17;18.33;;;7.40;99.90;;;;;;2269019;23;20447;-85
2021/11/26 01:53:49;;;;;;;30.63;17.20;;;7.60;99.90;;;;;;4882238;29;21565;-83
2021/11/26 01:56:15;;;;;;;36.67;19.43;;;7.60;99.90;;;;;;4891234;29;20467;-83
2021/11/26 01:58:43;;;;;;;30.63;17.07;;;7.50;99.90;;;;;;4885414;29;20456;-83
2021/11/26 02:01:10;;;;;;;32.10;20.10;;;7.30;99.90;;;;;;4888667;29;21776;-82
2021/11/26 02:03:38;;;;;;;36.63;18.27;;;7.20;99.90;;;;;;4890436;29;20481;-81
2021/11/26 02:06:05;;;;;;;30.77;18.57;;;7.10;99.90;;;;;;4887705;29;20467;-81
2021/11/26 02:08:32;;;;;;;28.97;17.37;;;7.10;99.90;;;;;;4884907;29;20470;-80
2021/11/26 02:10:58;;;;;;;27.20;16.20;;;7.20;99.90;;;;;;4888108;29;20506;-84
2021/11/26 02:13:26;;;;;;;25.00;15.43;;;7.50;99.90;;;;;;4888298;29;20458;-82
2021/11/26 02:15:54;;;;;;;32.47;18.47;;;7.60;99.90;;;;;;4884706;29;21661;-82
2021/11/26 02:18:21;;;;;;;29.00;17.43;;;7.70;99.90;;;;;;4887823;29;20543;-80
2021/11/26 02:20:48;;;;;;;33.73;16.53;;;7.60;99.90;;;;;;4880499;29;20484;-82
2021/11/26 02:23:29;;;;;;;35.27;17.80;;;7.60;99.90;;;;;;4885671;29;20565;-83
2021/11/26 02:25:56;;;;;;;34.00;17.23;;;7.50;99.90;;;;;;4888456;29;20469;-82
2021/11/26 02:28:25;;;;;;;31.53;17.10;;;7.40;99.90;;;;;;4888054;29;20476;-83
2021/11/26 02:30:51;;;;;;;33.67;16.07;;;7.40;99.90;;;;;;4887011;29;20487;-82
2021/11/26 02:33:21;;;;;;;31.30;17.23;;;7.30;99.90;;;;;;4901053;29;20454;-83
2021/11/26 02:35:51;;;;;;;33.17;16.30;;;7.20;99.90;;;;;;4887181;29;20474;-82
2021/11/26 02:38:21;;;;;;;30.17;15.60;;;7.30;99.90;;;;;;4883248;29;20460;-81
2021/11/26 02:40:48;;;;;;;32.43;16.27;;;7.30;99.90;;;;;;4881956;29;20491;-82
2021/11/26 02:43:15;;;;;;;22.60;13.43;;;7.20;99.90;;;;;;4896315;29;20493;-82
2021/11/26 02:45:44;;;;;;;31.10;14.77;;;7.30;99.90;;;;;;4883903;29;20637;-82
2021/11/26 02:48:13;;;;;;;29.70;16.10;;;7.30;99.90;;;;;;4882543;29;20472;-83
2021/11/26 02:50:42;;;;;;;27.83;15.13;;;7.10;99.90;;;;;;4880950;29;20496;-82
2021/11/26 02:53:09;;;;;;;18.67;12.63;;;6.90;99.90;;;;;;4885230;29;20810;-81
2021/11/26 02:55:37;;;;;;;24.40;12.97;;;7.00;99.90;;;;;;4886776;29;21078;-82
2021/11/26 02:58:05;;;;;;;24.53;14.10;;;7.30;99.90;;;;;;4882621;29;20472;-81
2021/11/26 03:00:36;;;;;;;25.33;12.33;;;7.40;99.90;;;;;;4898779;29;20635;-80
2021/11/26 03:03:03;;;;;;;30.10;14.60;;;7.40;99.90;;;;;;4875680;29;20537;-81
2021/11/26 03:05:30;;;;;;;25.97;15.60;;;7.40;99.90;;;;;;4892256;29;20547;-82
2021/11/26 03:07:57;;;;;;;29.13;14.70;;;7.30;99.90;;;;;;4884321;29;20459;-81
2021/11/26 03:10:26;;;;;;;26.93;14.20;;;7.10;99.90;;;;;;4886908;29;20490;-83
2021/11/26 03:12:57;;;;;;;25.47;14.23;;;6.90;99.90;;;;;;4887036;29;20471;-81
2021/11/26 03:15:26;;;;;;;17.63;11.80;;;6.90;99.90;;;;;;4886995;29;20977;-82
2021/11/26 03:17:55;;;;;;;24.83;13.83;;;6.80;99.90;;;;;;4881751;29;20464;-82
2021/11/26 03:20:24;;;;;;;24.23;13.30;;;6.80;99.90;;;;;;4885833;29;20478;-81
2021/11/26 03:22:51;;;;;;;28.33;13.60;;;6.80;99.90;;;;;;4879643;29;20592;-80
2021/11/26 03:25:18;;;;;;;25.47;12.67;;;6.80;99.90;;;;;;4878814;29;20823;-82
2021/11/26 03:27:46;;;;;;;27.60;14.57;;;6.80;99.90;;;;;;4880990;29;20556;-82
2021/11/26 03:30:17;;;;;;;22.70;13.53;;;6.90;99.90;;;;;;4878110;29;20487;-82
2021/11/26 03:32:45;;;;;;;21.60;13.80;;;6.90;99.90;;;;;;4892892;29;20452;-82
2021/11/26 03:35:14;;;;;;;23.13;12.60;;;6.90;99.90;;;;;;4904719;28;20473;-83
2021/11/26 03:37:45;;;;;;;20.97;12.87;;;7.00;99.90;;;;;;4868308;29;20470;-81
2021/11/26 03:40:19;;;;;;;20.70;14.03;;;7.10;99.90;;;;;;4870749;29;20562;-82
2021/11/26 03:42:52;;;;;;;21.07;12.23;;;7.10;99.90;;;;;;4876211;29;20622;-82
2021/11/26 03:45:29;;;;;;;23.57;14.17;;;7.30;99.90;;;;;;4874859;29;20470;-83
2021/11/26 22:00:41;;;;;;;3.03;1.60;;;6.90;99.50;;;;;;4904131;29;20500;-80
2021/11/26 22:03:13;;;;;;;1.80;1.70;;;6.90;99.50;;;;;;4888935;29;20491;-82
2021/11/26 22:05:42;;;;;;;1.80;1.70;;;6.90;99.50;;;;;;4907848;29;20547;-82
2021/11/26 22:08:09;;;;;;;1.60;1.50;;;7.00;99.20;;;;;;4878902;29;20463;-81
2021/11/26 22:10:38;;;;;;;1.30;1.20;;;6.90;99.30;;;;;;4917982;29;20481;-84
2021/11/26 22:13:07;;;;;;;1.47;1.37;;;6.90;99.10;;;;;;4900132;29;20459;-84
2021/11/26 22:15:37;;;;;;;1.33;1.23;;;6.90;99.10;;;;;;4916377;29;20450;-83
2021/11/26 22:18:05;;;;;;;1.70;1.57;;;6.80;99.30;;;;;;4914666;29;20457;-82
2021/11/26 22:20:33;;;;;;;1.50;1.40;;;6.80;99.60;;;;;;4912570;29;20502;-81
2021/11/26 22:23:00;;;;;;;1.97;1.87;;;6.90;99.50;;;;;;4924660;29;20530;-82
2021/11/26 22:25:27;;;;;;;1.60;1.50;;;6.80;99.50;;;;;;4918499;29;20519;-82
2021/11/26 22:28:28;;;;;;;1.70;1.60;;;6.80;99.70;;;;;;4893412;29;20481;-82
2021/11/26 22:34:21;;;;;;;1.27;1.17;;;6.70;99.30;;;;;;4908198;29;20489;-83
2021/11/26 22:36:59;;;;;;;1.70;1.60;;;6.70;99.60;;;;;;4911901;29;21097;-83
2021/11/26 22:39:26;;;;;;;0.93;0.93;;;6.70;99.60;;;;;;4907461;29;20458;-81
2021/11/26 22:42:09;;;;;;;1.60;1.50;;;6.80;99.50;;;;;;4896824;29;20490;-82
2021/11/26 22:44:44;;;;;;;1.47;1.27;;;6.70;99.60;;;;;;4892098;29;20483;-82
2021/11/26 22:48:10;;;;;;;;;;;;;;;;;;;;;
2021/11/26 22:50:51;;;;;;;1.50;1.43;;;6.70;99.90;;;;;;4866016;29;20544;-81
2021/11/26 22:53:56;;;;;;;1.93;1.60;;;6.90;99.90;;;;;;4849260;29;20515;-83
2021/11/26 22:56:36;;;;;;;1.67;1.57;;;6.90;99.50;;;;;;4848009;29;20465;-81
2021/11/26 22:59:08;;;;;;;1.47;1.37;;;6.90;99.40;;;;;;4845306;29;20514;-82
2021/11/26 23:01:38;;;;;;;1.57;1.43;;;6.80;99.40;;;;;;4861256;29;21862;-84
2021/11/26 23:04:07;;;;;;;1.60;1.50;;;6.80;99.60;;;;;;4845076;29;20562;-83
2021/11/26 23:06:37;;;;;;;1.60;1.33;;;6.80;99.70;;;;;;4865545;29;20455;-82
2021/11/26 23:09:07;;;;;;;1.83;1.73;;;6.80;99.60;;;;;;4870486;29;20712;-84
2021/11/26 23:11:48;;;;;;;1.37;1.30;;;6.80;99.60;;;;;;4869671;29;20496;-82
2021/11/26 23:14:16;;;;;;;1.53;1.40;;;6.90;99.70;;;;;;4869511;29;20473;-83
2021/11/26 23:17:03;;;;;;;1.77;1.67;;;6.80;99.50;;;;;;4865730;29;20467;-82
2021/11/26 23:19:34;;;;;;;1.87;1.77;;;6.90;99.60;;;;;;4902750;29;20473;-81
2021/11/26 23:22:06;;;;;;;1.17;1.17;;;6.80;99.70;;;;;;4905861;29;20503;-82
2021/11/26 23:24:33;;;;;;;1.43;1.33;;;6.80;99.80;;;;;;4924807;28;20489;-84
2021/11/26 23:27:08;;;;;;;1.03;1.00;;;6.80;99.80;;;;;;4904300;29;20456;-82
2021/11/26 23:30:08;;;;;;;1.50;1.40;;;6.70;99.90;;;;;;4906860;29;21030;-82
2021/11/26 23:32:57;;;;;;;1.33;1.00;;;6.90;99.70;;;;;;4916458;29;20459;-82
2021/11/26 23:35:59;;;;;;;0.80;0.80;;;6.80;99.80;;;;;;4905938;29;20483;-82
2021/11/26 23:39:02;;;;;;;1.30;1.20;;;6.90;99.70;;;;;;4896213;29;20478;-82
2021/11/26 23:49:25;;;;;;;1.27;1.20;;;6.80;99.90;;;;;;4931235;28;20418;-82
2021/11/26 23:55:39;;;;;;;0.80;0.80;;;6.80;99.90;;;;;;4909744;29;20493;-82
2021/11/26 23:58:07;;;;;;;1.07;1.00;;;6.70;99.90;;;;;;4887260;29;20566;-81
